Rejestracja

Wszystkie dane podawane są w czasie UTC za wyjątkiem miejsc gdzie jest jednoznacznie podane, że jest inaczej. Dane podawane w serwisie mają charakter informacyjny!!!
Informacje w sprawie dostępu do serwisu pod numerem tel. +48 261-828-138
Informacja dla żołnierzy i pracowników wojska: Prosimy o niezwłoczną zmianę adresu e-mail w profilu użytkownika na pocztę w domenie @ron.mil.pl

Aktualna Pogoda
 
Pogoda w Polsce
18°C Szczecin 17°C Suwałki 16°C Warszawa 17°C Poznan
17°C Opole 12°C Kraków 16°C Rzeszów
Więcej miast w Polsce

Pogoda w Europie
18°C Berlin 23°C Paryz 24°C Bruksela 19°C Oslo
16°C Praga 24°C Zagrzeb
Więcej miast w Europie

Metary wojskowe test
METAR EPBC 221400Z 11014KT 9999 SCT045 17/03 Q1022=
METAR EPCE 221430Z 12012KT 090V160 9999 SCT056 16/04 Q1022 RMK 159 044 4/4=
METAR EPDA 221430Z 14012KT 080V210 CAVOK 19/02 Q1020 RMK 187 032 0/0=
METAR EPDE 221430Z 12014KT CAVOK 15/03 Q1023 RMK 146 046 5/5=
METAR EPIR 221400Z 11016KT CAVOK 17/03 Q1021 RMK 172 039 4/4=
METAR EPKS 221430Z 09018KT CAVOK 17/04 Q1019 RMK 168 043 3/3=
METAR EPLK 221400Z 12014KT 080V160 9999 FEW050 SCT080 17/04 Q1019 RMK 171 041 3/2=
METAR EPLY 221400Z 10012KT CAVOK 16/06 Q1021 RMK 159 051 4/3=
METAR EPMB 221430Z 13015KT 9999 BKN060 18/04 Q1023 RMK 179 040 5/5=
METAR EPMI 221400Z 13016G30KT 9999 FEW050 17/02 Q1020 RMK 167 038 2/2=
METAR EPMM 221430Z 13011KT 100V180 9999 FEW040 SCT050 BKN080 15/04 Q1023 RMK 154 046 5/1=
METAR EPOK 221430Z 07009KT CAVOK 13/06 Q1023 RMK 126 066 0/0=
METAR EPPR 221400Z 10012KT 9999 SCT056 18/03 Q1023 RMK 178 036 3/3=
METAR EPPW 221430Z 07016KT CAVOK 17/04 Q1020 RMK 171 041 4/4=
METAR EPSN 221430Z 12014KT 090V160 9999 FEW034 17/04 Q1020 RMK 172 040 2/2=
METAR EPTM 221400Z 10014KT CAVOK 17/04 Q1020 RMK 166 043 5/3=


 

Prawa autorskie©2007 SSH SZ RP. Wszelkie prawa zastrzeżone.